Terminal Aerodrome Forecast
Issued by NWS Atlanta, GA

Home | Current Version | Previous Version | Text Only | Print | Product List | Glossary On
Versions: 1 2 3 4 5 6 7 8 9 10 11 12 13 14
465
FTUS42 KFFC 141128
TAFMCN
TAF
KMCN 141128Z 1412/1512 07006KT P6SM FEW200
     FM141800 11007KT P6SM SCT080
     FM150200 10006KT P6SM BKN035
     FM150500 10006KT P6SM BKN015=

USA.gov is the U.S. government's official web portal to all federal, state and local government web resources and services.